sensor_id;sensor_type;location;lat;lon;timestamp;P1;durP1;ratioP1;P2;durP2;ratioP2
974;SDS011;6115;49.296;10.602;2022-07-10T00:03:39;5.20;;;4.70;;
974;SDS011;6115;49.296;10.602;2022-07-10T00:08:40;5.50;;;5.00;;
974;SDS011;6115;49.296;10.602;2022-07-10T00:13:42;6.10;;;5.50;;
974;SDS011;6115;49.296;10.602;2022-07-10T00:18:43;6.37;;;5.77;;
974;SDS011;6115;49.296;10.602;2022-07-10T00:23:43;7.90;;;7.10;;
974;SDS011;6115;49.296;10.602;2022-07-10T00:28:44;8.20;;;7.03;;
974;SDS011;6115;49.296;10.602;2022-07-10T00:33:44;7.47;;;6.80;;
974;SDS011;6115;49.296;10.602;2022-07-10T00:38:45;7.40;;;6.70;;
974;SDS011;6115;49.296;10.602;2022-07-10T00:43:52;10.73;;;6.87;;
974;SDS011;6115;49.296;10.602;2022-07-10T00:48:57;8.97;;;8.07;;
974;SDS011;6115;49.296;10.602;2022-07-10T00:53:58;8.87;;;7.53;;
974;SDS011;6115;49.296;10.602;2022-07-10T00:58:59;14.70;;;9.10;;
974;SDS011;6115;49.296;10.602;2022-07-10T01:04:01;11.47;;;9.23;;
974;SDS011;6115;49.296;10.602;2022-07-10T01:09:02;10.87;;;8.40;;
974;SDS011;6115;49.296;10.602;2022-07-10T01:14:03;8.43;;;7.63;;
974;SDS011;6115;49.296;10.602;2022-07-10T01:19:04;9.77;;;8.83;;
974;SDS011;6115;49.296;10.602;2022-07-10T01:24:07;9.10;;;8.20;;
974;SDS011;6115;49.296;10.602;2022-07-10T01:29:09;9.40;;;8.60;;
974;SDS011;6115;49.296;10.602;2022-07-10T01:34:11;9.63;;;8.50;;
974;SDS011;6115;49.296;10.602;2022-07-10T01:39:12;10.67;;;9.67;;
974;SDS011;6115;49.296;10.602;2022-07-10T01:44:13;10.07;;;9.17;;
974;SDS011;6115;49.296;10.602;2022-07-10T01:49:14;10.07;;;9.17;;
974;SDS011;6115;49.296;10.602;2022-07-10T01:54:14;9.70;;;8.80;;
974;SDS011;6115;49.296;10.602;2022-07-10T01:59:15;11.13;;;9.30;;
974;SDS011;6115;49.296;10.602;2022-07-10T02:04:15;10.40;;;9.40;;
974;SDS011;6115;49.296;10.602;2022-07-10T02:09:35;10.40;;;9.50;;
974;SDS011;6115;49.296;10.602;2022-07-10T02:14:36;9.40;;;8.60;;
974;SDS011;6115;49.296;10.602;2022-07-10T02:19:37;9.90;;;9.00;;
974;SDS011;6115;49.296;10.602;2022-07-10T02:24:37;9.67;;;8.80;;
974;SDS011;6115;49.296;10.602;2022-07-10T02:29:38;10.57;;;9.63;;
974;SDS011;6115;49.296;10.602;2022-07-10T02:34:38;10.57;;;9.60;;
974;SDS011;6115;49.296;10.602;2022-07-10T02:39:39;10.30;;;9.30;;
974;SDS011;6115;49.296;10.602;2022-07-10T02:44:40;9.93;;;9.07;;
974;SDS011;6115;49.296;10.602;2022-07-10T02:49:40;11.77;;;10.23;;
974;SDS011;6115;49.296;10.602;2022-07-10T02:54:41;12.00;;;10.57;;
974;SDS011;6115;49.296;10.602;2022-07-10T02:59:41;13.80;;;9.97;;
974;SDS011;6115;49.296;10.602;2022-07-10T03:04:42;10.80;;;9.70;;
974;SDS011;6115;49.296;10.602;2022-07-10T03:09:43;10.07;;;9.07;;
974;SDS011;6115;49.296;10.602;2022-07-10T03:14:43;9.73;;;8.83;;
974;SDS011;6115;49.296;10.602;2022-07-10T03:19:44;9.47;;;8.67;;
974;SDS011;6115;49.296;10.602;2022-07-10T03:24:44;9.10;;;8.20;;
974;SDS011;6115;49.296;10.602;2022-07-10T03:29:46;9.77;;;8.77;;
974;SDS011;6115;49.296;10.602;2022-07-10T03:34:47;8.73;;;7.93;;
974;SDS011;6115;49.296;10.602;2022-07-10T03:39:48;8.03;;;7.33;;
974;SDS011;6115;49.296;10.602;2022-07-10T03:44:48;8.97;;;6.77;;
974;SDS011;6115;49.296;10.602;2022-07-10T03:49:49;7.80;;;7.10;;
974;SDS011;6115;49.296;10.602;2022-07-10T03:54:50;8.70;;;6.30;;
974;SDS011;6115;49.296;10.602;2022-07-10T03:59:50;9.93;;;5.90;;
974;SDS011;6115;49.296;10.602;2022-07-10T04:04:51;5.87;;;5.33;;
974;SDS011;6115;49.296;10.602;2022-07-10T04:09:51;5.23;;;4.73;;
974;SDS011;6115;49.296;10.602;2022-07-10T04:14:52;4.87;;;4.47;;
974;SDS011;6115;49.296;10.602;2022-07-10T04:19:52;5.33;;;4.80;;
974;SDS011;6115;49.296;10.602;2022-07-10T04:24:53;5.30;;;4.80;;
974;SDS011;6115;49.296;10.602;2022-07-10T04:29:54;5.63;;;4.03;;
974;SDS011;6115;49.296;10.602;2022-07-10T04:34:55;5.90;;;4.20;;
974;SDS011;6115;49.296;10.602;2022-07-10T04:39:56;8.93;;;3.00;;
974;SDS011;6115;49.296;10.602;2022-07-10T04:44:56;5.70;;;2.83;;
974;SDS011;6115;49.296;10.602;2022-07-10T04:49:57;1.90;;;1.80;;
974;SDS011;6115;49.296;10.602;2022-07-10T04:54:57;2.07;;;1.87;;
974;SDS011;6115;49.296;10.602;2022-07-10T04:59:58;4.23;;;2.17;;
974;SDS011;6115;49.296;10.602;2022-07-10T05:04:59;3.87;;;1.93;;
974;SDS011;6115;49.296;10.602;2022-07-10T05:10:00;4.30;;;2.33;;
974;SDS011;6115;49.296;10.602;2022-07-10T05:15:01;2.90;;;1.83;;
974;SDS011;6115;49.296;10.602;2022-07-10T05:20:02;3.23;;;2.10;;
974;SDS011;6115;49.296;10.602;2022-07-10T05:25:02;3.47;;;2.57;;
974;SDS011;6115;49.296;10.602;2022-07-10T05:30:03;4.50;;;3.13;;
974;SDS011;6115;49.296;10.602;2022-07-10T05:35:05;3.20;;;2.90;;
974;SDS011;6115;49.296;10.602;2022-07-10T05:40:06;3.63;;;2.27;;
974;SDS011;6115;49.296;10.602;2022-07-10T05:45:07;3.10;;;1.47;;
974;SDS011;6115;49.296;10.602;2022-07-10T05:50:08;1.90;;;1.67;;
974;SDS011;6115;49.296;10.602;2022-07-10T05:55:09;4.77;;;1.40;;
974;SDS011;6115;49.296;10.602;2022-07-10T06:00:10;2.23;;;1.20;;
974;SDS011;6115;49.296;10.602;2022-07-10T06:05:10;4.77;;;1.30;;
974;SDS011;6115;49.296;10.602;2022-07-10T06:10:11;3.90;;;0.90;;
974;SDS011;6115;49.296;10.602;2022-07-10T06:15:12;2.50;;;0.80;;
974;SDS011;6115;49.296;10.602;2022-07-10T06:20:13;1.67;;;1.00;;
974;SDS011;6115;49.296;10.602;2022-07-10T06:25:13;4.67;;;1.00;;
974;SDS011;6115;49.296;10.602;2022-07-10T06:30:14;1.73;;;0.93;;
974;SDS011;6115;49.296;10.602;2022-07-10T06:35:15;1.63;;;0.80;;
974;SDS011;6115;49.296;10.602;2022-07-10T06:40:15;1.40;;;0.90;;
974;SDS011;6115;49.296;10.602;2022-07-10T06:45:17;1.17;;;0.60;;
974;SDS011;6115;49.296;10.602;2022-07-10T06:50:17;2.27;;;1.00;;
974;SDS011;6115;49.296;10.602;2022-07-10T06:55:18;1.07;;;0.93;;
974;SDS011;6115;49.296;10.602;2022-07-10T07:00:20;2.93;;;1.10;;
974;SDS011;6115;49.296;10.602;2022-07-10T07:05:21;2.03;;;1.10;;
974;SDS011;6115;49.296;10.602;2022-07-10T07:10:22;3.50;;;1.10;;
974;SDS011;6115;49.296;10.602;2022-07-10T07:15:22;2.50;;;1.20;;
974;SDS011;6115;49.296;10.602;2022-07-10T07:20:26;2.30;;;1.00;;
974;SDS011;6115;49.296;10.602;2022-07-10T07:25:45;2.13;;;1.10;;
974;SDS011;6115;49.296;10.602;2022-07-10T07:30:49;1.87;;;1.03;;
974;SDS011;6115;49.296;10.602;2022-07-10T07:35:50;1.83;;;0.97;;
974;SDS011;6115;49.296;10.602;2022-07-10T07:40:50;2.07;;;0.90;;
974;SDS011;6115;49.296;10.602;2022-07-10T07:45:51;2.57;;;1.00;;
974;SDS011;6115;49.296;10.602;2022-07-10T07:50:52;1.90;;;0.80;;
974;SDS011;6115;49.296;10.602;2022-07-10T07:55:53;3.77;;;1.07;;
974;SDS011;6115;49.296;10.602;2022-07-10T08:00:54;2.30;;;1.07;;
974;SDS011;6115;49.296;10.602;2022-07-10T08:05:56;2.40;;;1.30;;
974;SDS011;6115;49.296;10.602;2022-07-10T08:10:57;2.07;;;0.90;;
974;SDS011;6115;49.296;10.602;2022-07-10T08:15:57;3.20;;;1.00;;
974;SDS011;6115;49.296;10.602;2022-07-10T08:20:58;1.50;;;0.97;;
974;SDS011;6115;49.296;10.602;2022-07-10T08:25:59;1.77;;;1.00;;
974;SDS011;6115;49.296;10.602;2022-07-10T08:30:59;1.70;;;0.87;;
974;SDS011;6115;49.296;10.602;2022-07-10T08:36:01;1.43;;;0.90;;
974;SDS011;6115;49.296;10.602;2022-07-10T08:41:02;4.03;;;1.20;;
974;SDS011;6115;49.296;10.602;2022-07-10T08:46:05;4.33;;;1.00;;
974;SDS011;6115;49.296;10.602;2022-07-10T08:51:07;2.37;;;1.00;;
974;SDS011;6115;49.296;10.602;2022-07-10T08:56:15;3.57;;;1.20;;
974;SDS011;6115;49.296;10.602;2022-07-10T09:01:16;3.17;;;1.10;;
974;SDS011;6115;49.296;10.602;2022-07-10T09:06:22;2.70;;;1.53;;
974;SDS011;6115;49.296;10.602;2022-07-10T09:11:24;1.93;;;0.93;;
974;SDS011;6115;49.296;10.602;2022-07-10T09:16:31;2.93;;;1.20;;
974;SDS011;6115;49.296;10.602;2022-07-10T09:21:33;2.03;;;1.20;;
974;SDS011;6115;49.296;10.602;2022-07-10T09:26:35;2.17;;;1.40;;
974;SDS011;6115;49.296;10.602;2022-07-10T09:31:49;2.23;;;0.80;;
974;SDS011;6115;49.296;10.602;2022-07-10T09:36:54;4.30;;;1.13;;
974;SDS011;6115;49.296;10.602;2022-07-10T09:41:58;6.53;;;1.30;;
974;SDS011;6115;49.296;10.602;2022-07-10T09:47:00;1.30;;;0.90;;
974;SDS011;6115;49.296;10.602;2022-07-10T09:52:00;2.73;;;1.20;;
974;SDS011;6115;49.296;10.602;2022-07-10T09:57:01;2.93;;;1.67;;
974;SDS011;6115;49.296;10.602;2022-07-10T10:02:05;2.43;;;1.07;;
974;SDS011;6115;49.296;10.602;2022-07-10T10:07:07;1.13;;;0.80;;
974;SDS011;6115;49.296;10.602;2022-07-10T10:17:45;3.30;;;1.00;;
974;SDS011;6115;49.296;10.602;2022-07-10T10:22:47;3.50;;;1.10;;
974;SDS011;6115;49.296;10.602;2022-07-10T10:27:49;1.20;;;0.73;;
974;SDS011;6115;49.296;10.602;2022-07-10T10:32:50;4.20;;;1.30;;
974;SDS011;6115;49.296;10.602;2022-07-10T10:37:51;1.90;;;1.20;;
974;SDS011;6115;49.296;10.602;2022-07-10T10:42:52;1.10;;;0.70;;
974;SDS011;6115;49.296;10.602;2022-07-10T10:53:12;1.30;;;0.80;;
974;SDS011;6115;49.296;10.602;2022-07-10T10:58:17;4.03;;;0.80;;
974;SDS011;6115;49.296;10.602;2022-07-10T11:03:19;1.67;;;0.87;;
974;SDS011;6115;49.296;10.602;2022-07-10T11:08:40;3.77;;;3.40;;
974;SDS011;6115;49.296;10.602;2022-07-10T11:13:43;1.73;;;1.20;;
974;SDS011;6115;49.296;10.602;2022-07-10T11:18:50;2.50;;;1.10;;
974;SDS011;6115;49.296;10.602;2022-07-10T11:23:56;4.30;;;0.80;;
974;SDS011;6115;49.296;10.602;2022-07-10T11:29:05;2.17;;;1.07;;
974;SDS011;6115;49.296;10.602;2022-07-10T11:34:06;1.90;;;1.60;;
974;SDS011;6115;49.296;10.602;2022-07-10T11:39:08;1.30;;;0.90;;
974;SDS011;6115;49.296;10.602;2022-07-10T11:44:12;2.13;;;0.80;;
974;SDS011;6115;49.296;10.602;2022-07-10T11:49:15;2.17;;;0.70;;
974;SDS011;6115;49.296;10.602;2022-07-10T11:54:17;3.00;;;1.00;;
974;SDS011;6115;49.296;10.602;2022-07-10T11:59:18;3.60;;;0.80;;
974;SDS011;6115;49.296;10.602;2022-07-10T12:04:24;3.53;;;1.13;;
974;SDS011;6115;49.296;10.602;2022-07-10T12:09:28;1.43;;;0.80;;
974;SDS011;6115;49.296;10.602;2022-07-10T12:14:31;0.90;;;0.70;;
974;SDS011;6115;49.296;10.602;2022-07-10T12:19:36;1.97;;;0.90;;
974;SDS011;6115;49.296;10.602;2022-07-10T12:24:38;2.13;;;0.93;;
974;SDS011;6115;49.296;10.602;2022-07-10T12:29:39;2.20;;;0.93;;
974;SDS011;6115;49.296;10.602;2022-07-10T12:34:41;2.07;;;1.23;;
974;SDS011;6115;49.296;10.602;2022-07-10T12:39:48;1.70;;;0.70;;
974;SDS011;6115;49.296;10.602;2022-07-10T12:44:50;1.03;;;0.67;;
974;SDS011;6115;49.296;10.602;2022-07-10T12:49:52;1.20;;;0.70;;
974;SDS011;6115;49.296;10.602;2022-07-10T12:55:06;2.07;;;0.73;;
974;SDS011;6115;49.296;10.602;2022-07-10T13:00:20;2.20;;;0.80;;
974;SDS011;6115;49.296;10.602;2022-07-10T13:05:27;1.53;;;0.80;;
974;SDS011;6115;49.296;10.602;2022-07-10T13:10:33;1.70;;;0.63;;
974;SDS011;6115;49.296;10.602;2022-07-10T13:15:36;1.27;;;0.73;;
974;SDS011;6115;49.296;10.602;2022-07-10T13:20:40;1.77;;;0.70;;
974;SDS011;6115;49.296;10.602;2022-07-10T13:25:41;2.13;;;0.70;;
974;SDS011;6115;49.296;10.602;2022-07-10T13:30:42;1.40;;;0.80;;
974;SDS011;6115;49.296;10.602;2022-07-10T13:35:43;1.00;;;0.70;;
974;SDS011;6115;49.296;10.602;2022-07-10T13:40:44;1.53;;;0.70;;
974;SDS011;6115;49.296;10.602;2022-07-10T13:45:45;1.57;;;0.80;;
974;SDS011;6115;49.296;10.602;2022-07-10T13:50:47;1.67;;;0.70;;
974;SDS011;6115;49.296;10.602;2022-07-10T13:55:47;2.07;;;0.80;;
974;SDS011;6115;49.296;10.602;2022-07-10T14:00:49;1.40;;;1.00;;
974;SDS011;6115;49.296;10.602;2022-07-10T14:05:49;1.87;;;0.70;;
974;SDS011;6115;49.296;10.602;2022-07-10T14:10:51;2.27;;;0.90;;
974;SDS011;6115;49.296;10.602;2022-07-10T14:15:51;1.70;;;1.40;;
974;SDS011;6115;49.296;10.602;2022-07-10T14:20:52;2.10;;;0.83;;
974;SDS011;6115;49.296;10.602;2022-07-10T14:26:05;1.30;;;0.80;;
974;SDS011;6115;49.296;10.602;2022-07-10T14:31:06;3.30;;;1.10;;
974;SDS011;6115;49.296;10.602;2022-07-10T14:36:07;1.43;;;0.83;;
974;SDS011;6115;49.296;10.602;2022-07-10T14:41:08;2.00;;;1.10;;
974;SDS011;6115;49.296;10.602;2022-07-10T14:46:08;1.70;;;1.00;;
974;SDS011;6115;49.296;10.602;2022-07-10T14:51:09;1.63;;;1.10;;
974;SDS011;6115;49.296;10.602;2022-07-10T14:56:10;2.17;;;1.07;;
974;SDS011;6115;49.296;10.602;2022-07-10T15:01:11;1.60;;;0.80;;
974;SDS011;6115;49.296;10.602;2022-07-10T15:06:12;1.10;;;0.80;;
974;SDS011;6115;49.296;10.602;2022-07-10T15:11:13;1.53;;;1.00;;
974;SDS011;6115;49.296;10.602;2022-07-10T15:16:13;1.60;;;0.80;;
974;SDS011;6115;49.296;10.602;2022-07-10T15:21:14;1.10;;;0.90;;
974;SDS011;6115;49.296;10.602;2022-07-10T15:26:15;2.17;;;0.80;;
974;SDS011;6115;49.296;10.602;2022-07-10T15:31:17;2.50;;;0.97;;
974;SDS011;6115;49.296;10.602;2022-07-10T15:36:17;1.40;;;1.00;;
974;SDS011;6115;49.296;10.602;2022-07-10T15:41:19;1.53;;;0.80;;
974;SDS011;6115;49.296;10.602;2022-07-10T15:46:19;3.20;;;1.00;;
974;SDS011;6115;49.296;10.602;2022-07-10T15:51:20;2.83;;;1.00;;
974;SDS011;6115;49.296;10.602;2022-07-10T15:56:20;3.33;;;1.10;;
974;SDS011;6115;49.296;10.602;2022-07-10T16:01:21;2.37;;;1.10;;
974;SDS011;6115;49.296;10.602;2022-07-10T16:06:21;1.87;;;0.80;;
974;SDS011;6115;49.296;10.602;2022-07-10T16:11:22;1.47;;;1.00;;
974;SDS011;6115;49.296;10.602;2022-07-10T16:16:23;2.93;;;1.00;;
974;SDS011;6115;49.296;10.602;2022-07-10T16:21:23;2.43;;;1.00;;
974;SDS011;6115;49.296;10.602;2022-07-10T16:26:24;2.60;;;0.90;;
974;SDS011;6115;49.296;10.602;2022-07-10T16:31:36;1.07;;;0.90;;
974;SDS011;6115;49.296;10.602;2022-07-10T16:37:23;1.60;;;1.10;;
974;SDS011;6115;49.296;10.602;2022-07-10T16:42:24;1.43;;;0.80;;
974;SDS011;6115;49.296;10.602;2022-07-10T16:47:25;1.20;;;1.00;;
974;SDS011;6115;49.296;10.602;2022-07-10T16:52:30;1.90;;;0.90;;
974;SDS011;6115;49.296;10.602;2022-07-10T16:57:31;2.17;;;0.90;;
974;SDS011;6115;49.296;10.602;2022-07-10T17:02:31;1.93;;;0.90;;
974;SDS011;6115;49.296;10.602;2022-07-10T17:07:32;1.67;;;0.93;;
974;SDS011;6115;49.296;10.602;2022-07-10T17:12:35;2.30;;;0.80;;
974;SDS011;6115;49.296;10.602;2022-07-10T17:17:36;3.30;;;1.00;;
974;SDS011;6115;49.296;10.602;2022-07-10T17:22:36;1.83;;;1.10;;
974;SDS011;6115;49.296;10.602;2022-07-10T17:27:39;1.20;;;0.70;;
974;SDS011;6115;49.296;10.602;2022-07-10T17:32:40;2.90;;;0.90;;
974;SDS011;6115;49.296;10.602;2022-07-10T17:37:41;3.63;;;0.90;;
974;SDS011;6115;49.296;10.602;2022-07-10T17:42:42;2.70;;;0.90;;
974;SDS011;6115;49.296;10.602;2022-07-10T17:47:43;2.00;;;1.00;;
974;SDS011;6115;49.296;10.602;2022-07-10T17:52:43;9.00;;;1.67;;
974;SDS011;6115;49.296;10.602;2022-07-10T17:57:44;4.40;;;0.80;;
974;SDS011;6115;49.296;10.602;2022-07-10T18:02:45;1.97;;;1.03;;
974;SDS011;6115;49.296;10.602;2022-07-10T18:07:45;3.73;;;1.00;;
974;SDS011;6115;49.296;10.602;2022-07-10T18:12:46;2.87;;;1.00;;
974;SDS011;6115;49.296;10.602;2022-07-10T18:17:46;2.20;;;1.00;;
974;SDS011;6115;49.296;10.602;2022-07-10T18:22:48;1.47;;;1.00;;
974;SDS011;6115;49.296;10.602;2022-07-10T18:27:50;3.23;;;1.20;;
974;SDS011;6115;49.296;10.602;2022-07-10T18:32:50;1.77;;;1.10;;
974;SDS011;6115;49.296;10.602;2022-07-10T18:38:10;1.23;;;0.90;;
974;SDS011;6115;49.296;10.602;2022-07-10T18:43:12;2.57;;;1.10;;
974;SDS011;6115;49.296;10.602;2022-07-10T18:48:13;1.70;;;0.80;;
974;SDS011;6115;49.296;10.602;2022-07-10T18:53:14;1.67;;;1.30;;
974;SDS011;6115;49.296;10.602;2022-07-10T18:58:14;1.40;;;0.90;;
974;SDS011;6115;49.296;10.602;2022-07-10T19:03:15;2.10;;;1.03;;
974;SDS011;6115;49.296;10.602;2022-07-10T19:08:16;2.33;;;1.23;;
974;SDS011;6115;49.296;10.602;2022-07-10T19:13:16;4.60;;;1.47;;
974;SDS011;6115;49.296;10.602;2022-07-10T19:18:17;1.80;;;1.00;;
974;SDS011;6115;49.296;10.602;2022-07-10T19:23:18;2.13;;;1.20;;
974;SDS011;6115;49.296;10.602;2022-07-10T19:28:19;4.67;;;1.40;;
974;SDS011;6115;49.296;10.602;2022-07-10T19:33:20;1.93;;;0.90;;
974;SDS011;6115;49.296;10.602;2022-07-10T19:38:22;1.60;;;0.97;;
974;SDS011;6115;49.296;10.602;2022-07-10T19:43:25;2.13;;;1.10;;
974;SDS011;6115;49.296;10.602;2022-07-10T19:48:26;1.43;;;1.13;;
974;SDS011;6115;49.296;10.602;2022-07-10T19:53:27;2.50;;;1.20;;
974;SDS011;6115;49.296;10.602;2022-07-10T19:58:27;2.10;;;1.70;;
974;SDS011;6115;49.296;10.602;2022-07-10T20:03:28;3.10;;;1.50;;
974;SDS011;6115;49.296;10.602;2022-07-10T20:08:29;2.30;;;1.00;;
974;SDS011;6115;49.296;10.602;2022-07-10T20:13:30;3.63;;;1.50;;
974;SDS011;6115;49.296;10.602;2022-07-10T20:18:31;3.23;;;1.10;;
974;SDS011;6115;49.296;10.602;2022-07-10T20:23:31;1.67;;;1.00;;
974;SDS011;6115;49.296;10.602;2022-07-10T20:28:32;2.97;;;1.27;;
974;SDS011;6115;49.296;10.602;2022-07-10T20:33:33;2.80;;;1.70;;
974;SDS011;6115;49.296;10.602;2022-07-10T20:38:38;2.33;;;1.30;;
974;SDS011;6115;49.296;10.602;2022-07-10T20:43:39;6.07;;;1.47;;
974;SDS011;6115;49.296;10.602;2022-07-10T20:48:40;6.27;;;1.60;;
974;SDS011;6115;49.296;10.602;2022-07-10T20:53:40;2.20;;;1.23;;
974;SDS011;6115;49.296;10.602;2022-07-10T20:58:42;2.40;;;1.17;;
974;SDS011;6115;49.296;10.602;2022-07-10T21:03:43;2.80;;;1.10;;
974;SDS011;6115;49.296;10.602;2022-07-10T21:08:44;1.67;;;1.57;;
974;SDS011;6115;49.296;10.602;2022-07-10T21:13:44;1.50;;;1.40;;
974;SDS011;6115;49.296;10.602;2022-07-10T21:18:45;2.83;;;1.10;;
974;SDS011;6115;49.296;10.602;2022-07-10T21:23:45;2.07;;;1.10;;
974;SDS011;6115;49.296;10.602;2022-07-10T21:28:46;4.97;;;2.23;;
974;SDS011;6115;49.296;10.602;2022-07-10T21:33:47;2.10;;;1.50;;
974;SDS011;6115;49.296;10.602;2022-07-10T21:38:47;2.80;;;1.20;;
974;SDS011;6115;49.296;10.602;2022-07-10T21:43:48;5.33;;;1.40;;
974;SDS011;6115;49.296;10.602;2022-07-10T21:48:48;2.70;;;1.37;;
974;SDS011;6115;49.296;10.602;2022-07-10T21:53:49;2.50;;;1.20;;
974;SDS011;6115;49.296;10.602;2022-07-10T21:58:50;3.83;;;1.60;;
974;SDS011;6115;49.296;10.602;2022-07-10T22:03:50;3.53;;;1.70;;
974;SDS011;6115;49.296;10.602;2022-07-10T22:08:51;4.30;;;1.40;;
974;SDS011;6115;49.296;10.602;2022-07-10T22:13:52;2.90;;;1.20;;
974;SDS011;6115;49.296;10.602;2022-07-10T22:18:53;3.13;;;1.33;;
974;SDS011;6115;49.296;10.602;2022-07-10T22:23:53;2.50;;;1.10;;
974;SDS011;6115;49.296;10.602;2022-07-10T22:28:55;1.70;;;1.30;;
974;SDS011;6115;49.296;10.602;2022-07-10T22:33:57;2.07;;;1.20;;
974;SDS011;6115;49.296;10.602;2022-07-10T22:38:58;2.17;;;1.00;;
974;SDS011;6115;49.296;10.602;2022-07-10T22:43:58;1.73;;;1.30;;
974;SDS011;6115;49.296;10.602;2022-07-10T22:48:59;4.70;;;1.10;;
974;SDS011;6115;49.296;10.602;2022-07-10T22:54:00;2.83;;;1.40;;
974;SDS011;6115;49.296;10.602;2022-07-10T22:59:00;1.77;;;1.40;;
974;SDS011;6115;49.296;10.602;2022-07-10T23:04:01;4.60;;;1.17;;
974;SDS011;6115;49.296;10.602;2022-07-10T23:09:02;1.73;;;1.30;;
974;SDS011;6115;49.296;10.602;2022-07-10T23:14:04;4.60;;;1.20;;
974;SDS011;6115;49.296;10.602;2022-07-10T23:19:04;2.50;;;1.10;;
974;SDS011;6115;49.296;10.602;2022-07-10T23:24:06;2.50;;;1.20;;
974;SDS011;6115;49.296;10.602;2022-07-10T23:29:06;1.30;;;1.10;;
974;SDS011;6115;49.296;10.602;2022-07-10T23:34:07;4.50;;;1.37;;
974;SDS011;6115;49.296;10.602;2022-07-10T23:39:07;2.90;;;1.10;;
974;SDS011;6115;49.296;10.602;2022-07-10T23:44:08;2.57;;;1.20;;
974;SDS011;6115;49.296;10.602;2022-07-10T23:49:08;1.53;;;1.20;;
974;SDS011;6115;49.296;10.602;2022-07-10T23:54:28;1.20;;;1.10;;
974;SDS011;6115;49.296;10.602;2022-07-10T23:59:28;4.13;;;1.20;;
